EDT,Max TemperatureF,Mean TemperatureF,Min TemperatureF,Max Dew PointF,MeanDew PointF,Min DewpointF,Max Humidity, Mean Humidity, Min Humidity, Max Sea Level PressureIn, Mean Sea Level PressureIn, Min Sea Level PressureIn, Max VisibilityMiles, Mean VisibilityMiles, Min VisibilityMiles, Max Wind SpeedMPH, Mean Wind SpeedMPH, Max Gust SpeedMPH,PrecipitationIn, CloudCover, Events, WindDirDegrees
2013-3-1,34,31,28,29,27,24,93,83,75,29.70,29.63,29.52,10,8,2,6,3,,0.03,8,Snow,326
2013-3-2,33,30,26,27,24,23,93,83,69,29.71,29.66,29.62,10,4,1,12,3,18,0.09,8,Snow,331
2013-3-3,34,30,25,25,23,20,93,83,67,29.67,29.62,29.56,10,7,1,9,1,,0.01,8,Snow,323
2013-3-4,26,24,23,20,18,17,84,75,69,29.82,29.61,29.55,10,4,0,12,7,21,0.05,8,Snow,297
2013-3-5,39,32,24,32,27,19,93,78,62,30.12,30.02,29.83,10,9,2,8,2,,0.00,8,Snow,360
2013-3-6,35,32,28,29,25,21,82,73,60,30.25,30.19,30.08,10,7,1,10,5,26,0.02,8,Snow,90
2013-3-7,34,31,28,21,20,19,72,66,56,30.23,30.19,30.14,10,10,10,13,7,16,0.00,8,,26
2013-3-8,42,30,17,20,18,13,88,62,35,30.30,30.20,30.12,10,10,10,12,6,17,0.00,3,,9
2013-3-9,53,29,5,22,11,1,95,69,17,30.37,30.31,30.24,10,8,1,8,0,,0.00,0,,332
2013-3-10,48,30,12,27,19,9,92,65,37,30.40,30.30,30.22,10,9,2,9,2,,0.00,2,,168
2013-3-11,48,40,33,29,27,23,82,60,43,30.22,30.12,30.03,10,10,9,9,4,,0.00,1,,156
2013-3-12,46,42,37,43,38,24,93,81,45,30.02,29.86,29.67,10,8,2,15,4,24,0.41,7,Rain,151
2013-3-13,41,36,27,41,31,23,96,79,57,29.79,29.73,29.69,10,9,2,8,3,,0.03,7,Rain,324
2013-3-14,30,22,14,27,17,1,93,70,51,29.83,29.70,29.64,10,8,0,10,4,18,0.05,8,Fog-Snow,298
2013-3-15,32,21,10,21,9,1,86,64,28,29.84,29.70,29.55,10,8,2,9,4,18,0.00,6,Snow,283
2013-3-16,27,20,10,16,10,5,80,61,43,29.90,29.76,29.61,10,10,6,12,5,20,0.00,6,Snow,330
2013-3-17,23,12,1,4,-1,-6,80,56,32,30.30,30.06,29.90,10,10,10,15,4,38,0.00,3,,287
2013-3-18,32,15,-2,12,-1,-8,79,47,20,30.43,30.33,30.21,10,10,10,9,2,,0.00,0,,335
2013-3-19,28,24,21,21,19,9,88,80,45,30.12,29.87,29.69,10,2,0,14,7,22,0.40,8,Fog-Snow,110
2013-3-20,30,22,15,23,18,10,93,77,61,29.72,29.60,29.56,10,3,0,12,3,21,0.04,8,Fog-Snow,286
2013-3-21,37,22,9,15,11,5,92,54,27,29.73,29.67,29.60,10,10,10,9,4,,0.00,4,,324
2013-3-22,33,19,6,19,13,1,88,64,44,29.68,29.63,29.57,10,9,2,10,3,21,0.00,6,Snow,316
2013-3-23,33,28,24,25,20,16,80,71,60,29.70,29.57,29.49,10,3,1,18,8,36,0.01,8,Snow,297
2013-3-24,37,30,19,24,22,16,85,71,59,29.82,29.76,29.66,10,9,5,9,6,22,0.00,7,Snow,295
2013-3-25,42,24,6,24,15,1,92,71,45,29.82,29.72,29.60,10,9,1,8,1,,0.00,6,,85
2013-3-26,44,32,21,23,21,17,84,61,41,29.77,29.68,29.61,10,10,10,10,5,,0.00,4,,336
2013-3-27,42,30,18,33,27,14,93,80,51,29.90,29.82,29.74,10,8,2,13,2,21,0.06,6,Rain-Snow,320
2013-3-28,45,39,32,32,31,28,96,80,52,30.02,29.94,29.86,10,7,2,9,1,,0.01,8,Snow,333
2013-3-29,48,40,34,34,30,24,85,68,44,30.04,30.01,29.97,10,10,10,14,3,18,0.00,8,Rain,299
2013-3-30,48,36,23,29,20,11,88,58,24,30.11,30.05,30.02,10,10,10,10,2,20,0.00,1,,291
2013-3-31,52,34,16,28,20,12,88,57,26,30.12,29.99,29.78,10,10,10,17,3,25,0.00,1,,152